sensor_id;sensor_type;location;lat;lon;timestamp;pressure;altitude;pressure_sealevel;temperature;humidity
52745;BME280;38637;49.984;20.426;2022-09-27T00:00:11;98105.13;;;10.49;80.50
52745;BME280;38637;49.984;20.426;2022-09-27T00:02:36;98104.63;;;10.47;80.28
52745;BME280;38637;49.984;20.426;2022-09-27T00:05:02;98107.63;;;10.46;80.66
52745;BME280;38637;49.984;20.426;2022-09-27T00:07:27;98108.44;;;10.46;81.24
52745;BME280;38637;49.984;20.426;2022-09-27T00:09:52;98102.75;;;10.43;80.38
52745;BME280;38637;49.984;20.426;2022-09-27T00:12:17;98114.56;;;10.38;79.73
52745;BME280;38637;49.984;20.426;2022-09-27T00:14:42;98106.66;;;10.37;79.38
52745;BME280;38637;49.984;20.426;2022-09-27T00:17:08;98094.41;;;10.34;79.05
52745;BME280;38637;49.984;20.426;2022-09-27T00:19:34;98106.72;;;10.31;79.17
52745;BME280;38637;49.984;20.426;2022-09-27T00:21:59;98090.66;;;10.30;79.36
52745;BME280;38637;49.984;20.426;2022-09-27T00:24:25;98092.84;;;10.28;80.29
52745;BME280;38637;49.984;20.426;2022-09-27T00:26:50;98089.31;;;10.27;79.96
52745;BME280;38637;49.984;20.426;2022-09-27T00:29:16;98088.75;;;10.25;79.42
52745;BME280;38637;49.984;20.426;2022-09-27T00:31:42;98087.44;;;10.23;78.65
52745;BME280;38637;49.984;20.426;2022-09-27T00:34:09;98085.28;;;10.20;78.38
52745;BME280;38637;49.984;20.426;2022-09-27T00:36:38;98074.38;;;10.20;78.50
52745;BME280;38637;49.984;20.426;2022-09-27T00:39:03;98070.59;;;10.16;78.52
52745;BME280;38637;49.984;20.426;2022-09-27T00:41:30;98062.97;;;10.12;79.05
52745;BME280;38637;49.984;20.426;2022-09-27T00:43:57;98071.16;;;10.12;78.81
52745;BME280;38637;49.984;20.426;2022-09-27T00:48:48;98059.50;;;10.07;78.54
52745;BME280;38637;49.984;20.426;2022-09-27T00:51:19;98055.47;;;10.04;78.57
52745;BME280;38637;49.984;20.426;2022-09-27T00:53:46;98054.63;;;10.04;78.09
52745;BME280;38637;49.984;20.426;2022-09-27T00:56:17;98050.28;;;10.03;77.82
52745;BME280;38637;49.984;20.426;2022-09-27T00:58:44;98057.69;;;9.97;77.61
52745;BME280;38637;49.984;20.426;2022-09-27T01:01:11;98056.66;;;9.93;76.82
52745;BME280;38637;49.984;20.426;2022-09-27T01:03:41;98060.50;;;9.92;78.06
52745;BME280;38637;49.984;20.426;2022-09-27T01:06:08;98056.72;;;9.88;78.14
52745;BME280;38637;49.984;20.426;2022-09-27T01:08:34;98042.56;;;9.86;78.23
52745;BME280;38637;49.984;20.426;2022-09-27T01:11:12;98051.38;;;9.78;78.07
52745;BME280;38637;49.984;20.426;2022-09-27T01:13:43;98046.78;;;9.73;77.98
52745;BME280;38637;49.984;20.426;2022-09-27T01:18:49;98033.44;;;9.72;78.12
52745;BME280;38637;49.984;20.426;2022-09-27T01:24:01;98025.28;;;9.72;77.69
52745;BME280;38637;49.984;20.426;2022-09-27T01:26:54;98025.28;;;9.72;77.64
52745;BME280;38637;49.984;20.426;2022-09-27T01:32:09;98023.94;;;9.69;78.18
52745;BME280;38637;49.984;20.426;2022-09-27T01:34:47;98016.88;;;9.68;78.49
52745;BME280;38637;49.984;20.426;2022-09-27T01:37:21;98008.13;;;9.71;78.45
52745;BME280;38637;49.984;20.426;2022-09-27T01:40:03;98003.69;;;9.75;79.04
52745;BME280;38637;49.984;20.426;2022-09-27T01:42:54;98009.69;;;9.77;79.70
52745;BME280;38637;49.984;20.426;2022-09-27T01:47:48;98007.53;;;9.74;77.99
52745;BME280;38637;49.984;20.426;2022-09-27T01:50:17;98004.28;;;9.72;78.35
52745;BME280;38637;49.984;20.426;2022-09-27T01:52:46;98009.44;;;9.74;78.83
52745;BME280;38637;49.984;20.426;2022-09-27T01:55:14;98010.84;;;9.71;79.29
52745;BME280;38637;49.984;20.426;2022-09-27T01:57:41;98002.66;;;9.71;79.67
52745;BME280;38637;49.984;20.426;2022-09-27T02:00:09;98011.13;;;9.70;79.44
52745;BME280;38637;49.984;20.426;2022-09-27T02:02:35;98014.94;;;9.69;79.64
52745;BME280;38637;49.984;20.426;2022-09-27T02:05:03;98007.34;;;9.65;79.28
52745;BME280;38637;49.984;20.426;2022-09-27T02:07:35;98003.59;;;9.61;79.60
52745;BME280;38637;49.984;20.426;2022-09-27T02:10:03;97994.88;;;9.59;79.56
52745;BME280;38637;49.984;20.426;2022-09-27T02:12:32;97995.69;;;9.60;79.78
52745;BME280;38637;49.984;20.426;2022-09-27T02:15:06;97991.03;;;9.60;79.68
52745;BME280;38637;49.984;20.426;2022-09-27T02:20:17;98000.91;;;9.56;78.08
52745;BME280;38637;49.984;20.426;2022-09-27T02:31:18;97992.44;;;9.34;78.36
52745;BME280;38637;49.984;20.426;2022-09-27T02:33:58;97982.59;;;9.33;78.23
52745;BME280;38637;49.984;20.426;2022-09-27T02:36:24;97977.41;;;9.36;78.60
52745;BME280;38637;49.984;20.426;2022-09-27T02:38:50;97994.03;;;9.35;79.41
52745;BME280;38637;49.984;20.426;2022-09-27T02:41:16;97986.69;;;9.35;80.32
52745;BME280;38637;49.984;20.426;2022-09-27T02:43:42;97985.06;;;9.34;80.55
52745;BME280;38637;49.984;20.426;2022-09-27T02:48:56;97979.47;;;9.20;81.24
52745;BME280;38637;49.984;20.426;2022-09-27T02:54:11;97977.31;;;9.17;79.86
52745;BME280;38637;49.984;20.426;2022-09-27T02:56:49;97970.00;;;9.13;80.22
52745;BME280;38637;49.984;20.426;2022-09-27T02:59:28;97979.56;;;9.10;80.95
52745;BME280;38637;49.984;20.426;2022-09-27T03:06:47;97976.59;;;9.07;81.89
52745;BME280;38637;49.984;20.426;2022-09-27T03:09:23;97969.28;;;9.02;82.15
52745;BME280;38637;49.984;20.426;2022-09-27T03:11:49;97952.47;;;8.95;81.25
52745;BME280;38637;49.984;20.426;2022-09-27T03:14:15;97956.88;;;8.91;81.48
52745;BME280;38637;49.984;20.426;2022-09-27T03:16:40;97960.44;;;8.86;81.58
52745;BME280;38637;49.984;20.426;2022-09-27T03:19:05;97962.63;;;8.84;81.49
52745;BME280;38637;49.984;20.426;2022-09-27T03:21:31;97955.00;;;8.86;81.60
52745;BME280;38637;49.984;20.426;2022-09-27T03:23:56;97959.28;;;8.92;80.92
52745;BME280;38637;49.984;20.426;2022-09-27T03:26:21;97954.66;;;8.93;80.79
52745;BME280;38637;49.984;20.426;2022-09-27T03:28:46;97945.69;;;8.92;80.50
52745;BME280;38637;49.984;20.426;2022-09-27T03:31:12;97943.53;;;8.89;79.85
52745;BME280;38637;49.984;20.426;2022-09-27T03:33:38;97942.50;;;8.85;80.32
52745;BME280;38637;49.984;20.426;2022-09-27T03:36:03;97944.44;;;8.80;80.39
52745;BME280;38637;49.984;20.426;2022-09-27T03:38:29;97945.53;;;8.79;80.06
52745;BME280;38637;49.984;20.426;2022-09-27T03:40:54;97952.88;;;8.78;79.32
52745;BME280;38637;49.984;20.426;2022-09-27T03:43:19;97942.56;;;8.75;78.92
52745;BME280;38637;49.984;20.426;2022-09-27T03:45:44;97936.31;;;8.74;78.58
52745;BME280;38637;49.984;20.426;2022-09-27T03:48:10;97931.16;;;8.73;78.67
52745;BME280;38637;49.984;20.426;2022-09-27T03:50:35;97929.25;;;8.73;78.41
52745;BME280;38637;49.984;20.426;2022-09-27T03:53:00;97935.25;;;8.70;77.67
52745;BME280;38637;49.984;20.426;2022-09-27T03:55:25;97935.25;;;8.70;77.78
52745;BME280;38637;49.984;20.426;2022-09-27T03:57:51;97939.09;;;8.69;77.30
52745;BME280;38637;49.984;20.426;2022-09-27T04:00:16;97941.28;;;8.67;77.50
52745;BME280;38637;49.984;20.426;2022-09-27T04:02:42;97939.13;;;8.64;77.09
52745;BME280;38637;49.984;20.426;2022-09-27T04:05:07;97935.63;;;8.59;77.27
52745;BME280;38637;49.984;20.426;2022-09-27T04:07:32;97944.69;;;8.49;76.90
52745;BME280;38637;49.984;20.426;2022-09-27T04:09:57;97942.53;;;8.41;77.44
52745;BME280;38637;49.984;20.426;2022-09-27T04:12:22;97934.44;;;8.31;77.48
52745;BME280;38637;49.984;20.426;2022-09-27T04:14:48;97930.94;;;8.25;77.88
52745;BME280;38637;49.984;20.426;2022-09-27T04:17:13;97927.66;;;8.23;77.86
52745;BME280;38637;49.984;20.426;2022-09-27T04:19:38;97929.59;;;8.22;77.97
52745;BME280;38637;49.984;20.426;2022-09-27T04:22:04;97925.78;;;8.23;78.28
52745;BME280;38637;49.984;20.426;2022-09-27T04:24:29;97926.31;;;8.25;78.07
52745;BME280;38637;49.984;20.426;2022-09-27T04:26:56;97931.97;;;8.29;78.15
52745;BME280;38637;49.984;20.426;2022-09-27T04:29:22;97930.63;;;8.32;77.46
52745;BME280;38637;49.984;20.426;2022-09-27T04:31:47;97939.56;;;8.32;76.91
52745;BME280;38637;49.984;20.426;2022-09-27T04:34:12;97937.72;;;8.27;77.28
52745;BME280;38637;49.984;20.426;2022-09-27T04:36:37;97929.31;;;8.24;77.32
52745;BME280;38637;49.984;20.426;2022-09-27T04:39:04;97930.69;;;8.21;77.06
52745;BME280;38637;49.984;20.426;2022-09-27T04:41:30;97926.88;;;8.22;77.27
52745;BME280;38637;49.984;20.426;2022-09-27T04:43:55;97927.41;;;8.24;77.40
52745;BME280;38637;49.984;20.426;2022-09-27T04:46:21;97935.56;;;8.24;77.20
52745;BME280;38637;49.984;20.426;2022-09-27T04:48:46;97939.38;;;8.23;77.59
52745;BME280;38637;49.984;20.426;2022-09-27T04:51:12;97931.22;;;8.23;77.57
52745;BME280;38637;49.984;20.426;2022-09-27T04:53:37;97920.63;;;8.22;77.68
52745;BME280;38637;49.984;20.426;2022-09-27T04:56:03;97914.38;;;8.21;78.11
52745;BME280;38637;49.984;20.426;2022-09-27T04:58:30;97919.81;;;8.21;78.64
52745;BME280;38637;49.984;20.426;2022-09-27T05:00:55;97911.13;;;8.19;78.82
52745;BME280;38637;49.984;20.426;2022-09-27T05:03:21;97916.00;;;8.22;78.69
52745;BME280;38637;49.984;20.426;2022-09-27T05:05:46;97918.94;;;8.26;78.50
52745;BME280;38637;49.984;20.426;2022-09-27T05:08:11;97901.25;;;8.28;78.64
52745;BME280;38637;49.984;20.426;2022-09-27T05:10:37;97909.41;;;8.34;78.12
52745;BME280;38637;49.984;20.426;2022-09-27T05:13:02;97909.94;;;8.36;78.04
52745;BME280;38637;49.984;20.426;2022-09-27T05:15:27;97904.19;;;8.37;78.33
52745;BME280;38637;49.984;20.426;2022-09-27T05:17:52;97908.25;;;8.45;78.33
52745;BME280;38637;49.984;20.426;2022-09-27T05:20:18;97915.56;;;8.49;78.29
52745;BME280;38637;49.984;20.426;2022-09-27T05:22:43;97916.59;;;8.54;78.46
52745;BME280;38637;49.984;20.426;2022-09-27T05:25:08;97914.41;;;8.56;77.92
52745;BME280;38637;49.984;20.426;2022-09-27T05:27:34;97904.34;;;8.56;78.41
52745;BME280;38637;49.984;20.426;2022-09-27T05:29:59;97908.94;;;8.61;78.51
52745;BME280;38637;49.984;20.426;2022-09-27T05:32:25;97888.78;;;8.62;78.46
52745;BME280;38637;49.984;20.426;2022-09-27T05:34:51;97882.78;;;8.65;78.93
52745;BME280;38637;49.984;20.426;2022-09-27T05:37:17;97875.97;;;8.67;79.06
52745;BME280;38637;49.984;20.426;2022-09-27T05:39:43;97867.75;;;8.72;79.47
52745;BME280;38637;49.984;20.426;2022-09-27T05:42:08;97868.22;;;8.80;80.08
52745;BME280;38637;49.984;20.426;2022-09-27T05:44:34;97869.00;;;8.85;79.90
52745;BME280;38637;49.984;20.426;2022-09-27T05:47:00;97866.47;;;8.94;80.47
52745;BME280;38637;49.984;20.426;2022-09-27T05:49:28;97872.91;;;9.03;80.38
52745;BME280;38637;49.984;20.426;2022-09-27T05:51:53;97876.63;;;9.12;79.95
52745;BME280;38637;49.984;20.426;2022-09-27T05:54:18;97865.66;;;9.17;80.70
52745;BME280;38637;49.984;20.426;2022-09-27T05:56:43;97870.75;;;9.24;80.71
52745;BME280;38637;49.984;20.426;2022-09-27T05:59:08;97869.84;;;9.34;80.26
52745;BME280;38637;49.984;20.426;2022-09-27T06:01:34;97867.25;;;9.42;80.27
52745;BME280;38637;49.984;20.426;2022-09-27T06:03:59;97859.25;;;9.51;80.76
52745;BME280;38637;49.984;20.426;2022-09-27T06:06:25;97848.53;;;9.60;80.77
52745;BME280;38637;49.984;20.426;2022-09-27T06:08:50;97852.22;;;9.69;80.96
52745;BME280;38637;49.984;20.426;2022-09-27T06:11:16;97843.09;;;9.79;80.95
52745;BME280;38637;49.984;20.426;2022-09-27T06:13:41;97848.69;;;9.87;81.94
52745;BME280;38637;49.984;20.426;2022-09-27T06:16:07;97856.22;;;9.96;82.27
52745;BME280;38637;49.984;20.426;2022-09-27T06:18:33;97863.44;;;10.05;82.77
52745;BME280;38637;49.984;20.426;2022-09-27T06:20:59;97837.94;;;9.96;83.06
52745;BME280;38637;49.984;20.426;2022-09-27T06:23:25;97861.81;;;10.23;83.88
52745;BME280;38637;49.984;20.426;2022-09-27T06:25:50;97862.06;;;10.27;83.50
52745;BME280;38637;49.984;20.426;2022-09-27T06:28:16;97875.53;;;10.37;83.23
52745;BME280;38637;49.984;20.426;2022-09-27T06:30:42;97862.53;;;10.48;82.37
52745;BME280;38637;49.984;20.426;2022-09-27T06:33:08;97863.78;;;10.55;82.57
52745;BME280;38637;49.984;20.426;2022-09-27T06:35:34;97867.75;;;10.63;83.03
52745;BME280;38637;49.984;20.426;2022-09-27T06:38:03;97864.63;;;10.70;83.63
52745;BME280;38637;49.984;20.426;2022-09-27T06:40:29;97862.03;;;10.78;84.77
52745;BME280;38637;49.984;20.426;2022-09-27T06:42:55;97856.97;;;10.86;84.20
52745;BME280;38637;49.984;20.426;2022-09-27T06:45:26;97859.22;;;10.97;84.59
52745;BME280;38637;49.984;20.426;2022-09-27T06:47:51;97853.28;;;11.09;84.23
52745;BME280;38637;49.984;20.426;2022-09-27T06:50:17;97856.31;;;11.21;84.23
52745;BME280;38637;49.984;20.426;2022-09-27T06:52:46;97850.63;;;11.32;84.69
52745;BME280;38637;49.984;20.426;2022-09-27T06:55:11;97855.59;;;11.43;84.87
52745;BME280;38637;49.984;20.426;2022-09-27T06:57:36;97858.94;;;11.54;84.73
52745;BME280;38637;49.984;20.426;2022-09-27T07:00:20;97861.13;;;11.66;84.49
52745;BME280;38637;49.984;20.426;2022-09-27T07:02:48;97865.28;;;11.77;84.49
52745;BME280;38637;49.984;20.426;2022-09-27T07:05:14;97867.59;;;11.84;84.44
52745;BME280;38637;49.984;20.426;2022-09-27T07:07:39;97876.25;;;11.91;84.00
52745;BME280;38637;49.984;20.426;2022-09-27T07:10:05;97868.41;;;11.98;84.49
52745;BME280;38637;49.984;20.426;2022-09-27T07:12:30;97859.78;;;12.05;84.75
52745;BME280;38637;49.984;20.426;2022-09-27T07:14:56;97861.28;;;12.11;84.93
52745;BME280;38637;49.984;20.426;2022-09-27T07:17:22;97854.06;;;12.15;84.78
52745;BME280;38637;49.984;20.426;2022-09-27T07:19:47;97850.41;;;12.19;85.35
52745;BME280;38637;49.984;20.426;2022-09-27T07:22:12;97857.22;;;12.22;85.19
52745;BME280;38637;49.984;20.426;2022-09-27T07:24:38;97858.19;;;12.26;85.15
52745;BME280;38637;49.984;20.426;2022-09-27T07:27:03;97864.47;;;12.27;85.09
52745;BME280;38637;49.984;20.426;2022-09-27T07:29:28;97861.63;;;12.32;85.65
52745;BME280;38637;49.984;20.426;2022-09-27T07:31:53;97869.41;;;12.38;85.45
52745;BME280;38637;49.984;20.426;2022-09-27T07:34:18;97860.28;;;12.43;85.51
52745;BME280;38637;49.984;20.426;2022-09-27T07:36:43;97863.66;;;12.49;85.58
52745;BME280;38637;49.984;20.426;2022-09-27T07:39:09;97854.84;;;12.52;85.80
52745;BME280;38637;49.984;20.426;2022-09-27T07:41:34;97861.31;;;12.56;86.00
52745;BME280;38637;49.984;20.426;2022-09-27T07:43:59;97859.91;;;12.58;85.60
52745;BME280;38637;49.984;20.426;2022-09-27T07:46:24;97866.66;;;12.61;85.60
52745;BME280;38637;49.984;20.426;2022-09-27T07:48:50;97861.06;;;12.66;85.64
52745;BME280;38637;49.984;20.426;2022-09-27T07:51:16;97858.38;;;12.75;86.27
52745;BME280;38637;49.984;20.426;2022-09-27T07:53:41;97862.50;;;12.86;86.26
52745;BME280;38637;49.984;20.426;2022-09-27T07:56:06;97847.38;;;12.97;85.76
52745;BME280;38637;49.984;20.426;2022-09-27T07:58:32;97849.81;;;12.99;85.19
52745;BME280;38637;49.984;20.426;2022-09-27T08:00:58;97839.84;;;13.03;86.04
52745;BME280;38637;49.984;20.426;2022-09-27T08:03:23;97846.28;;;13.07;85.93
52745;BME280;38637;49.984;20.426;2022-09-27T08:05:48;97843.75;;;13.10;85.50
52745;BME280;38637;49.984;20.426;2022-09-27T08:08:14;97839.25;;;13.15;85.33
52745;BME280;38637;49.984;20.426;2022-09-27T08:10:39;97846.84;;;13.18;85.45
52745;BME280;38637;49.984;20.426;2022-09-27T08:13:08;97844.59;;;13.20;84.61
52745;BME280;38637;49.984;20.426;2022-09-27T08:15:33;97848.03;;;13.25;84.97
52745;BME280;38637;49.984;20.426;2022-09-27T08:18:03;97835.81;;;13.31;85.15
52745;BME280;38637;49.984;20.426;2022-09-27T08:20:28;97844.38;;;13.39;84.73
52745;BME280;38637;49.984;20.426;2022-09-27T08:22:53;97830.03;;;13.42;84.18
52745;BME280;38637;49.984;20.426;2022-09-27T08:25:19;97828.22;;;13.37;83.97
52745;BME280;38637;49.984;20.426;2022-09-27T08:27:53;97830.66;;;13.39;84.39
52745;BME280;38637;49.984;20.426;2022-09-27T08:30:19;97827.94;;;13.39;84.50
52745;BME280;38637;49.984;20.426;2022-09-27T08:32:44;97821.81;;;13.42;84.81
52745;BME280;38637;49.984;20.426;2022-09-27T08:35:09;97821.84;;;13.50;85.18
52745;BME280;38637;49.984;20.426;2022-09-27T08:37:34;97817.00;;;13.56;85.94
52745;BME280;38637;49.984;20.426;2022-09-27T08:40:00;97818.47;;;13.62;85.83
52745;BME280;38637;49.984;20.426;2022-09-27T08:47:36;97818.97;;;13.73;86.29
52745;BME280;38637;49.984;20.426;2022-09-27T08:50:13;97827.84;;;13.78;86.62
52745;BME280;38637;49.984;20.426;2022-09-27T08:52:44;97815.59;;;13.85;86.68
52745;BME280;38637;49.984;20.426;2022-09-27T08:55:31;97814.63;;;13.89;86.08
52745;BME280;38637;49.984;20.426;2022-09-27T08:58:01;97813.66;;;13.94;87.33
52745;BME280;38637;49.984;20.426;2022-09-27T09:00:29;97790.75;;;13.81;86.73
52745;BME280;38637;49.984;20.426;2022-09-27T09:02:55;97809.00;;;14.03;87.11
52745;BME280;38637;49.984;20.426;2022-09-27T09:05:27;97804.94;;;14.09;87.29
52745;BME280;38637;49.984;20.426;2022-09-27T09:08:00;97804.97;;;14.18;87.41
52745;BME280;38637;49.984;20.426;2022-09-27T09:13:47;97810.91;;;14.37;87.23
52745;BME280;38637;49.984;20.426;2022-09-27T09:16:21;97806.56;;;14.45;86.84
52745;BME280;38637;49.984;20.426;2022-09-27T09:18:57;97805.28;;;14.51;86.27
52745;BME280;38637;49.984;20.426;2022-09-27T09:21:30;97807.19;;;14.59;86.79
52745;BME280;38637;49.984;20.426;2022-09-27T09:31:58;97780.56;;;14.98;85.81
52745;BME280;38637;49.984;20.426;2022-09-27T09:34:31;97781.50;;;15.02;85.28
52745;BME280;38637;49.984;20.426;2022-09-27T09:37:01;97777.13;;;15.10;85.36
52745;BME280;38637;49.984;20.426;2022-09-27T09:39:42;97763.34;;;15.19;85.42
52745;BME280;38637;49.984;20.426;2022-09-27T09:42:55;97765.53;;;15.34;81.46
52745;BME280;38637;49.984;20.426;2022-09-27T09:47:28;97757.81;;;15.48;80.34
52745;BME280;38637;49.984;20.426;2022-09-27T09:49:59;97752.78;;;15.50;77.97
52745;BME280;38637;49.984;20.426;2022-09-27T09:52:29;97756.16;;;15.56;78.56
52745;BME280;38637;49.984;20.426;2022-09-27T09:55:16;97748.00;;;15.68;79.42
52745;BME280;38637;49.984;20.426;2022-09-27T09:57:51;97739.81;;;15.80;79.13
52745;BME280;38637;49.984;20.426;2022-09-27T10:00:18;97736.53;;;15.87;77.80
52745;BME280;38637;49.984;20.426;2022-09-27T10:02:44;97732.56;;;15.97;77.58
52745;BME280;38637;49.984;20.426;2022-09-27T10:05:20;97739.81;;;16.01;73.45
52745;BME280;38637;49.984;20.426;2022-09-27T10:07:46;97739.81;;;16.01;71.34
52745;BME280;38637;49.984;20.426;2022-09-27T10:10:15;97731.56;;;16.01;72.46
52745;BME280;38637;49.984;20.426;2022-09-27T10:12:41;97721.47;;;16.05;73.19
52745;BME280;38637;49.984;20.426;2022-09-27T10:15:06;97714.13;;;16.09;73.73
52745;BME280;38637;49.984;20.426;2022-09-27T10:17:34;97702.44;;;16.13;72.87
52745;BME280;38637;49.984;20.426;2022-09-27T10:20:00;97704.66;;;16.19;73.97
52745;BME280;38637;49.984;20.426;2022-09-27T10:22:36;97702.03;;;16.23;73.39
52745;BME280;38637;49.984;20.426;2022-09-27T10:25:05;97701.00;;;16.27;73.11
52745;BME280;38637;49.984;20.426;2022-09-27T10:27:47;97703.88;;;16.31;73.58
52745;BME280;38637;49.984;20.426;2022-09-27T10:30:20;97695.88;;;16.38;74.48
52745;BME280;38637;49.984;20.426;2022-09-27T10:32:46;97692.19;;;16.46;73.76
52745;BME280;38637;49.984;20.426;2022-09-27T10:40:38;97689.25;;;16.64;71.53
52745;BME280;38637;49.984;20.426;2022-09-27T10:43:19;97685.47;;;16.68;71.23
52745;BME280;38637;49.984;20.426;2022-09-27T10:45:48;97688.00;;;16.73;71.65
52745;BME280;38637;49.984;20.426;2022-09-27T10:48:17;97690.09;;;16.76;69.37
52745;BME280;38637;49.984;20.426;2022-09-27T10:50:53;97687.44;;;16.80;69.52
52745;BME280;38637;49.984;20.426;2022-09-27T10:53:20;97690.44;;;16.87;68.31
52745;BME280;38637;49.984;20.426;2022-09-27T10:55:46;97687.34;;;16.89;68.14
52745;BME280;38637;49.984;20.426;2022-09-27T10:58:17;97691.03;;;16.93;69.44
52745;BME280;38637;49.984;20.426;2022-09-27T11:00:43;97682.06;;;16.96;69.27
52745;BME280;38637;49.984;20.426;2022-09-27T11:03:14;97674.72;;;17.00;68.80
52745;BME280;38637;49.984;20.426;2022-09-27T11:05:40;97674.81;;;17.04;69.21
52745;BME280;38637;49.984;20.426;2022-09-27T11:10:43;97665.72;;;17.15;68.14
52745;BME280;38637;49.984;20.426;2022-09-27T11:13:16;97653.31;;;17.21;66.50
52745;BME280;38637;49.984;20.426;2022-09-27T11:18:19;97650.84;;;17.32;65.09
52745;BME280;38637;49.984;20.426;2022-09-27T11:20:51;97645.56;;;17.39;65.37
52745;BME280;38637;49.984;20.426;2022-09-27T11:23:23;97649.22;;;17.43;63.82
52745;BME280;38637;49.984;20.426;2022-09-27T11:25:56;97641.41;;;17.45;63.50
52745;BME280;38637;49.984;20.426;2022-09-27T11:36:10;97627.34;;;17.51;60.18
52745;BME280;38637;49.984;20.426;2022-09-27T11:42:26;97613.41;;;17.59;62.11
52745;BME280;38637;49.984;20.426;2022-09-27T11:47:10;97616.41;;;17.66;62.09
52745;BME280;38637;49.984;20.426;2022-09-27T11:52:20;97605.00;;;17.68;62.58
52745;BME280;38637;49.984;20.426;2022-09-27T11:57:41;97601.03;;;17.81;63.21
52745;BME280;38637;49.984;20.426;2022-09-27T12:02:44;97606.00;;;18.04;63.75
52745;BME280;38637;49.984;20.426;2022-09-27T12:08:02;97607.44;;;18.13;59.27
52745;BME280;38637;49.984;20.426;2022-09-27T12:10:28;97613.03;;;18.17;60.35
52745;BME280;38637;49.984;20.426;2022-09-27T12:12:54;97604.06;;;18.20;60.91
52745;BME280;38637;49.984;20.426;2022-09-27T12:15:23;97602.09;;;18.21;60.29
52745;BME280;38637;49.984;20.426;2022-09-27T12:17:51;97605.31;;;18.23;59.80
52745;BME280;38637;49.984;20.426;2022-09-27T12:20:21;97601.47;;;18.27;60.85
52745;BME280;38637;49.984;20.426;2022-09-27T12:25:20;97590.16;;;18.32;61.98
52745;BME280;38637;49.984;20.426;2022-09-27T12:28:31;97590.59;;;18.34;62.07
52745;BME280;38637;49.984;20.426;2022-09-27T12:30:36;97584.72;;;18.36;62.20
52745;BME280;38637;49.984;20.426;2022-09-27T12:35:39;97572.16;;;18.38;62.14
52745;BME280;38637;49.984;20.426;2022-09-27T12:38:14;97573.47;;;18.45;62.74
52745;BME280;38637;49.984;20.426;2022-09-27T12:40:42;97578.03;;;18.53;62.76
52745;BME280;38637;49.984;20.426;2022-09-27T12:43:15;97567.84;;;18.57;61.24
52745;BME280;38637;49.984;20.426;2022-09-27T12:51:10;97562.50;;;18.64;61.86
52745;BME280;38637;49.984;20.426;2022-09-27T12:53:41;97557.69;;;18.61;62.46
52745;BME280;38637;49.984;20.426;2022-09-27T12:58:40;97547.16;;;18.51;62.16
52745;BME280;38637;49.984;20.426;2022-09-27T13:04:15;97544.78;;;18.49;61.60
52745;BME280;38637;49.984;20.426;2022-09-27T13:14:25;97523.09;;;18.51;61.77
52745;BME280;38637;49.984;20.426;2022-09-27T13:16:51;97525.97;;;18.55;61.01
52745;BME280;38637;49.984;20.426;2022-09-27T13:19:59;97523.28;;;18.58;61.23
52745;BME280;38637;49.984;20.426;2022-09-27T13:22:07;97525.31;;;18.62;60.46
52745;BME280;38637;49.984;20.426;2022-09-27T13:27:08;97521.03;;;18.64;60.98
52745;BME280;38637;49.984;20.426;2022-09-27T13:29:47;97518.63;;;18.63;60.48
52745;BME280;38637;49.984;20.426;2022-09-27T13:32:13;97509.53;;;18.62;60.78
52745;BME280;38637;49.984;20.426;2022-09-27T13:37:35;97505.97;;;18.62;60.94
52745;BME280;38637;49.984;20.426;2022-09-27T13:40:19;97516.22;;;18.61;60.47
52745;BME280;38637;49.984;20.426;2022-09-27T13:42:48;97513.81;;;18.59;61.35
52745;BME280;38637;49.984;20.426;2022-09-27T13:45:23;97520.50;;;18.58;62.07
52745;BME280;38637;49.984;20.426;2022-09-27T13:47:52;97512.47;;;18.53;61.65
52745;BME280;38637;49.984;20.426;2022-09-27T13:50:38;97509.28;;;18.51;62.10
52745;BME280;38637;49.984;20.426;2022-09-27T13:53:54;97514.38;;;18.49;62.59
52745;BME280;38637;49.984;20.426;2022-09-27T13:55:58;97520.63;;;18.46;62.92
52745;BME280;38637;49.984;20.426;2022-09-27T14:00:52;97529.72;;;18.47;63.27
52745;BME280;38637;49.984;20.426;2022-09-27T14:03:21;97520.63;;;18.46;62.95
52745;BME280;38637;49.984;20.426;2022-09-27T14:06:03;97525.44;;;18.49;63.28
52745;BME280;38637;49.984;20.426;2022-09-27T14:08:31;97529.44;;;18.52;63.50
52745;BME280;38637;49.984;20.426;2022-09-27T14:10:57;97521.94;;;18.52;63.63
52745;BME280;38637;49.984;20.426;2022-09-27T14:13:23;97519.97;;;18.53;63.87
52745;BME280;38637;49.984;20.426;2022-09-27T14:15:49;97514.06;;;18.54;63.98
52745;BME280;38637;49.984;20.426;2022-09-27T14:18:16;97505.00;;;18.54;63.57
52745;BME280;38637;49.984;20.426;2022-09-27T14:20:42;97499.47;;;18.54;63.85
52745;BME280;38637;49.984;20.426;2022-09-27T14:23:15;97501.88;;;18.55;63.18
52745;BME280;38637;49.984;20.426;2022-09-27T14:25:46;97501.81;;;18.52;63.53
52745;BME280;38637;49.984;20.426;2022-09-27T14:28:20;97504.91;;;18.50;63.73
52745;BME280;38637;49.984;20.426;2022-09-27T14:30:47;97504.84;;;18.47;62.95
52745;BME280;38637;49.984;20.426;2022-09-27T14:33:28;97501.53;;;18.41;62.95
52745;BME280;38637;49.984;20.426;2022-09-27T14:35:54;97507.34;;;18.36;63.91
52745;BME280;38637;49.984;20.426;2022-09-27T14:38:37;97499.34;;;18.31;62.77
52745;BME280;38637;49.984;20.426;2022-09-27T14:41:06;97488.88;;;18.24;63.11
52745;BME280;38637;49.984;20.426;2022-09-27T14:43:32;97500.66;;;18.21;63.21
52745;BME280;38637;49.984;20.426;2022-09-27T14:45:59;97503.72;;;18.16;63.97
52745;BME280;38637;49.984;20.426;2022-09-27T14:53:24;97488.66;;;17.98;63.30
52745;BME280;38637;49.984;20.426;2022-09-27T14:55:49;97493.66;;;17.92;63.07
52745;BME280;38637;49.984;20.426;2022-09-27T14:58:17;97490.72;;;17.85;62.98
52745;BME280;38637;49.984;20.426;2022-09-27T15:00:44;97495.69;;;17.79;63.02
52745;BME280;38637;49.984;20.426;2022-09-27T15:03:11;97490.38;;;17.74;63.08